Torres Canon, Colorado
Current Conditions -  °F | °C
As of 11:30 PM on Thursday 18 Dec 2014 (Local Time) from KVTP Reporting Station
Broken Clouds Broken Clouds  
Wind Chill:   Ceiling: 100
Heat Index: 16°   Visibility: 10mi
Dew Point: 12°   Wind: 7mph
Humidity: 86%   Direction: 200°SSW
Pressure: 30.08"   Gusts: NA
Location:  37.1566°N, 104.956°W
Report Text: KVTP 190630Z AUTO 20006KT 10SM BKN001 M09/M11 A3008 RMK AO2
Loading
Personal Weather Stations






























Interactive Weather Map New forecast layout! Learn more

10-Day Weather Forecast

Advertisements
Track Severe Weather on mobile